Weather observations for the past three days for
Zapata, TX
Metric (Imperial)
Date Time (cdt) Wind (kph) Vis. (km) Weather Sky Cond. Temperature (ºC) Relative Humidity Wind Chill (°C) Heat Index (°C) Pressure Precipitation (cm)
Air Dwpt 6 hour altimeter (cm) sea level (mb) 1 hr 3 hr 6 hr
Max. Min.
02 11:55 N 15 16.09 Partly Cloudy SCT110 20.1 11.2 57% 76.68 0.0
02 11:35 N 15 16.09 Mostly Cloudy BKN110 18.7 10.8 60% 76.68 0.0
02 11:15 N 15 16.09 Partly Cloudy SCT110 18.7 10.9 61% 76.68 0.0
02 10:55 N 17 G 26 16.09 Partly Cloudy SCT110 18.2 10.6 61% 76.68 0.0
02 10:35 N 13 16.09 Mostly Cloudy BKN110 17.5 10.5 64% 76.66 0.0
02 10:15 N 17 16.09 Mostly Cloudy BKN110 17.4 10.5 64% 76.66 0.0
02 09:55 N 15 16.09 Mostly Cloudy BKN110 17.2 10.5 65% 76.66 0.0
02 09:35 N 20 G 28 16.09 Mostly Cloudy BKN110 16.7 10.3 66% 76.63 0.0
02 09:15 N 19 16.09 Mostly Cloudy BKN110 16 10.2 69% 76.63 0.0
02 08:55 N 19 G 30 16.09 Mostly Cloudy BKN110 15.7 10.2 70% 76.61 0.0
02 08:35 N 11 16.09 Mostly Cloudy BKN110 15.3 10.5 73% 76.61 0.0
02 08:15 N 15 16.09 Mostly Cloudy BKN110 15.1 10.5 74% 76.56 0.0
02 07:55 N 15 16.09 Overcast OVC110 14.8 10.5 76% 76.53 0.0
02 07:35 N 15 16.09 Mostly Cloudy BKN110 14.5 10.5 77% 76.5 0.0
02 07:15 N 13 16.09 Fair CLR 14.1 10.6 80% 76.45 0.0
02 06:55 N 13 16.09 Fair CLR 14.2 11 18 14.2 81% 76.43 0.0
02 06:35 N 11 16.09 Fair CLR 14.5 11.5 82% 76.4 0.0
02 06:15 N 15 16.09 Fair CLR 14.6 11.5 82% 76.38 0.0
02 05:55 N 13 16.09 Fair CLR 15 12 82% 76.35 0.0
02 05:35 N 22 G 30 16.09 Partly Cloudy SCT015 15.5 12.4 82% 76.35 0.0
02 05:15 N 17 G 26 16.09 Overcast OVC015 16.2 13 81% 76.33 0.0
02 04:55 N 17 16.09 Overcast OVC017 16 12.6 80% 76.33 0.0
02 04:35 N 13 16.09 Mostly Cloudy SCT019 BKN120 16 12.6 80% 76.33 0.0
02 04:15 N 17 16.09 Mostly Cloudy SCT018 BKN120 16 12.8 81% 76.28 0.0
02 03:55 N 20 G 28 16.09 Mostly Cloudy SCT017 BKN120 16 13.1 83% 76.28 0.0
02 03:35 N 13 16.09 Mostly Cloudy BKN120 16.1 13 82% 76.3 0.0
02 03:15 N 13 16.09 Overcast SCT047 OVC120 16.3 13 81% 76.3 0.0
02 02:55 N 13 16.09 Partly Cloudy SCT016 SCT049 SCT120 16.3 13 81% 76.3 0.0
02 02:35 N 15 16.09 Mostly Cloudy BKN016 16.6 13 79% 76.3 0.0
02 02:15 N 17 G 26 16.09 Overcast OVC018 17.1 13.5 80% 76.33 0.0
02 01:55 N 15 16.09 Overcast OVC020 17.3 13.5 79% 76.3 0.0
02 01:35 NE 15 16.09 Overcast OVC020 17.5 13.5 78% 76.3 0.0
02 01:15 N 15 16.09 Overcast OVC020 17.7 13.7 78% 76.3 0.0
02 00:55 N 9 16.09 Overcast OVC020 18 14 20.8 18 78% 76.3 0.0
02 00:35 N 17 16.09 Overcast OVC020 18 14 78% 76.3 0.0
02 00:15 N 17 16.09 Overcast BKN022 OVC027 18.2 14.1 77% 76.3 0.0
01 23:55 N 19 G 26 16.09 Overcast OVC028 18.2 14 77% 76.28 0.0
01 23:35 N 15 G 30 16.09 Overcast SCT020 OVC028 18.6 14.5 77% 76.25 0.0
01 23:15 N 24 16.09 Overcast BKN020 BKN025 OVC031 19.2 15.2 78% 76.23 0.0
01 22:55 NE 19 G 26 16.09 Overcast SCT021 BKN030 OVC038 19.3 15.3 78% 76.2 0.0
01 22:35 NE 15 16.09 Overcast OVC019 19.2 15.6 80% 76.17 0.0
01 22:15 N 26 G 31 16.09 Overcast OVC019 19.7 15.8 78% 76.12 0.0
01 21:55 N 7 16.09 Overcast SCT021 BKN026 OVC034 19.7 15.7 78% 76.1 0.0
01 21:35 NE 17 16.09 Overcast SCT021 OVC026 20 15.5 75% 76.05 0.0
01 21:15 N 24 G 33 16.09 Overcast OVC020 20.3 16 76% 76.02 0.0
01 20:35 N 11 16.09 Overcast BKN023 OVC028 20.5 16.6 78% 75.95 0.0
01 20:15 N 13 G 30 16.09 Overcast BKN023 OVC046 20.5 16.3 77% 75.92 0.0
01 19:55 N 19 16.09 Overcast OVC021 20.7 16.6 77% 75.87 0.0
01 19:35 N 15 G 28 16.09 Overcast BKN019 OVC034 20.7 16.9 79% 75.84 0.0
01 19:15 N 20 G 33 16.09 Overcast BKN017 BKN022 OVC037 20.5 16.7 79% 75.82 0.0
01 18:35 N 20 G 28 16.09 Overcast OVC016 20.4 17.1 81% 75.79 0.0
01 18:15 N 17 G 33 16.09 Overcast OVC016 20.7 16.8 78% 75.74 0.0
01 17:35 N 26 G 39 16.09 Overcast OVC016 20.7 17 79% 75.72 0.0
01 17:15 N 19 G 30 16.09 Overcast OVC016 21 17.3 80% 75.69 0.0
01 16:55 N 20 G 28 16.09 Overcast OVC016 21 17.5 81% 75.69 0.0
01 16:35 N 22 G 30 16.09 Overcast OVC016 21.3 17.9 81% 75.67 0.0
01 16:15 N 24 G 31 16.09 Overcast OVC014 21.6 18.3 82% 75.64 0.0
01 15:55 N 22 G 31 16.09 Overcast OVC014 21.4 18.3 83% 75.64 0.0
01 15:35 N 19 G 26 16.09 Overcast BKN012 OVC019 21.4 18.6 84% 75.64 0.0
01 15:15 N 20 16.09 Overcast OVC012 21.3 18.6 85% 75.64 0.0
01 14:55 N 19 16.09 Overcast OVC010 21 19 88% 75.64 0.0
01 14:35 N 20 G 30 16.09 Overcast OVC008 20.1 18.9 93% 75.69 0.0
01 14:15 N 19 G 30 16.09 Overcast OVC008 19.6 19.1 97% 75.67 0.0
01 13:55 N 20 G 33 6.44 Light Drizzle OVC006 19.4 18.9 97% 75.69 0.0
01 13:35 NW 24 G 33 4.02 Drizzle OVC006 19.5 19.1 98% 75.72 0.0
01 13:15 NW 19 G 28 4.02 Fog/Mist OVC006 20 19.6 98% 75.69 0.0
01 12:55 NW 15 4.83 Fog/Mist OVC006 20.2 19.8 24.9 20.1 98% 75.67 0.0 0.08
01 12:35 NW 11 3.22 Fog/Mist OVC006 20.4 20 98% 75.69 0.0
01 11:55 NW 11 4.83 Fog/Mist OVC006 20.2 19.8 98% 75.74 0.0
01 11:35 W 9 6.44 Fog/Mist BKN006 OVC012 20.3 20 98% 75.74 0.0
01 11:15 NW 17 8.05 Fog/Mist BKN006 OVC012 20.2 19.9 98% 75.69 0.0
01 10:55 NW 13 6.44 Light Drizzle SCT006 OVC012 20.3 20 98% 75.69 0.0 0.08
01 10:35 NW 19 4.83 Drizzle SCT008 OVC012 20.7 20.3 98% 75.69 0.0 0.08
01 10:15 NW 9 4.02 Rain BKN004 BKN009 OVC012 21 20.5 97% 75.69 0.0 0.08
01 09:55 NW 9 8.05 Heavy Rain BKN004 OVC010 21.5 20.9 96% 75.67 0.0
01 09:35 N 15 11.27 Light Rain SCT004 OVC012 22.1 21.1 94% 75.64 0.0
01 09:15 E 6 11.27 Overcast OVC012 24.7 23.1 91% 25 75.62 0.0
01 08:55 E 7 8.05 Fog/Mist OVC012 24.4 23.4 94% 24 75.62 0.0
01 08:35 Calm 6.44 Rain OVC012 24.3 23.5 95% 24 75.64 0.0
01 08:15 Calm 4.02 Drizzle OVC012 24.4 23.1 93% 24 75.64 0.0
01 07:55 Calm 6.44 Rain OVC012 24.8 22.7 88% 25 75.64 0.0
01 07:35 Calm 16.09 Overcast BKN012 OVC022 24.7 22.5 88% 25 75.62 0.0
01 07:15 Calm 16.09 Overcast BKN014 OVC024 24.5 22.7 90% 25 75.62 0.0
01 06:55 E 11 8.05 Fog/Mist BKN014 OVC024 24.5 22.5 26 24.5 89% 25 75.62 0.0
01 06:35 E 7 16.09 Overcast SCT014 BKN026 OVC031 25 22 83% 26 75.62 0.0
01 06:15 SE 7 16.09 Overcast OVC031 25 22 83% 26 75.59 0.0
01 05:55 E 13 16.09 Overcast OVC029 25.1 21.9 82% 26 75.57 0.0
01 05:35 E 7 16.09 Overcast SCT016 BKN025 OVC032 25.1 21.9 82% 26 75.57 0.0
01 05:15 SE 13 16.09 Overcast SCT014 BKN021 OVC028 25.1 21.8 82% 26 75.57 0.0
01 04:55 E 11 16.09 Overcast BKN014 OVC024 25.2 21.8 82% 26 75.57 0.0
01 04:35 E 7 16.09 Overcast OVC014 25.2 21.7 81% 26 75.59 0.0
01 04:15 E 9 16.09 Overcast OVC019 25.3 21.8 81% 26 75.59 0.0
01 03:55 E 9 16.09 Overcast OVC019 25.3 21.8 81% 26 75.59 0.0
01 03:35 E 13 16.09 Overcast OVC019 25.3 21.8 81% 26 75.59 0.0
01 02:55 E 9 16.09 Overcast SCT016 OVC023 25.5 21.6 79% 27 75.57 0.0
01 02:35 E 9 16.09 Overcast BKN016 OVC025 25.6 21.8 80% 27 75.62 0.0
01 02:15 SE 9 16.09 Overcast SCT016 BKN023 OVC080 25.6 21.9 80% 27 75.62 0.0
01 01:55 E 13 16.09 Overcast BKN016 OVC080 25.6 22 81% 27 75.59 0.0
01 01:35 E 17 16.09 Overcast OVC016 25.7 22.1 81% 27 75.59 0.0
01 01:15 E 13 16.09 Overcast SCT014 OVC075 25.9 22.2 80% 27 75.59 0.0
01 00:55 E 19 16.09 Overcast OVC075 26 22.3 29.5 26 80% 28 75.57 0.0
01 00:35 E 13 16.09 Overcast OVC075 26.2 22.5 80% 28 75.57 0.0
01 00:15 E 13 16.09 Overcast OVC065 26.2 22.4 80% 28 75.59 0.0
30 23:55 E 17 16.09 Overcast OVC065 26.3 22.3 79% 28 75.59 0.0
30 23:35 E 20 G 30 16.09 Mostly Cloudy SCT030 BKN065 26.5 22.3 78% 29 75.59 0.0
30 23:15 E 17 16.09 Partly Cloudy SCT029 SCT037 SCT055 26.7 22.2 76% 29 75.62 0.0
30 22:55 E 19 G 26 16.09 Overcast SCT021 OVC032 27 22.1 75% 29 75.62 0.0
30 22:15 E 17 16.09 Partly Cloudy SCT043 27 21.6 72% 29 75.54 0.0
30 21:55 NE 11 16.09 Partly Cloudy SCT024 SCT046 26.7 20.8 70% 28 75.57 0.0
30 21:35 NE 17 16.09 Mostly Cloudy BKN024 26.7 20.7 70% 28 75.54 0.0
30 21:15 NE 11 16.09 Overcast OVC024 27 20.8 69% 29 75.51 0.0
30 20:55 NE 19 16.09 Mostly Cloudy BKN024 27.2 21 69% 29 75.46 0.0
30 20:35 NE 19 G 28 16.09 Partly Cloudy SCT024 SCT075 27.5 21.1 68% 30 75.46 0.0
30 20:15 NE 17 G 28 16.09 Partly Cloudy SCT060 SCT075 27.8 21.2 67% 30 75.44 0.0
30 19:55 NE 15 G 26 11.27 Partly Cloudy SCT060 28.5 21.5 66% 31 75.44 0.0
30 19:35 NE 13 G 28 11.27 Partly Cloudy SCT060 28.7 21.5 65% 31 75.44 0.0
30 19:15 N 17 G 28 11.27 Partly Cloudy SCT060 SCT070 29.2 21.7 64% 32 75.41 0.0
30 18:55 NE 20 G 30 11.27 Partly Cloudy SCT065 SCT070 29.5 22.1 32.5 27.3 64% 33 75.39 0.0
30 18:35 N 20 G 31 11.27 Partly Cloudy SCT033 SCT044 SCT050 29.6 22.4 65% 33 75.39 0.0
30 18:15 N 22 G 30 16.09 Partly Cloudy SCT033 SCT044 SCT055 30 22.3 63% 34 75.36 0.0
30 17:55 N 17 G 31 11.27 Mostly Cloudy BKN055 30.8 22.4 61% 35 75.34 0.0
30 17:35 NE 19 G 26 11.27 Mostly Cloudy BKN060 31.7 21.8 56% 35 75.34 0.0
30 17:15 Calm 16.09 Mostly Cloudy BKN060 32.2 21 52% 35 75.34 0.0
30 16:55 N 9 11.27 Partly Cloudy SCT050 32.2 20.8 51% 35 75.36 0.0
30 16:35 Calm 11.27 Mostly Cloudy SCT050 BKN055 32.2 21.1 52% 35 75.36 0.0
30 16:15 E 6 11.27 Mostly Cloudy SCT044 BKN050 32.2 21 52% 35 75.36 0.0
30 15:55 S 6 11.27 Mostly Cloudy SCT040 BKN045 32.1 21.3 53% 35 75.39 0.0
30 15:35 NE 6 11.27 Mostly Cloudy BKN038 BKN044 32.2 21.6 54% 36 75.41 0.0
30 15:15 Calm 11.27 Partly Cloudy SCT041 31.2 21.7 57% 35 75.46 0.0
30 14:55 Calm 11.27 Mostly Cloudy SCT027 SCT032 BKN039 30.2 22.1 62% 34 75.49 0.0
30 14:35 Calm 11.27 Overcast BKN025 OVC035 29.7 22.2 64% 33 75.54 0.0
30 14:15 E 9 8.05 Overcast with Haze BKN023 OVC033 29.6 22.5 66% 33 75.54 0.0
30 13:55 SE 6 8.05 Overcast with Haze OVC021 28.9 22.5 68% 32 75.59 0.0
30 13:35 E 6 8.05 Overcast with Haze BKN021 OVC027 28.1 22.4 71% 31 75.59 0.0
30 13:15 SE 7 8.05 Overcast with Haze BKN019 OVC026 27.8 22.3 72% 31 75.62 0.0
30 12:55 E 7 8.05 Overcast with Haze OVC019 27.2 22.2 27.8 24.6 74% 30 75.64 0.0
30 12:35 E 6 8.05 Overcast with Haze OVC021 27.7 22.2 72% 30 75.67 0.0
30 12:15 E 11 11.27 Overcast BKN019 OVC026 27.3 22 73% 30 75.69 0.0
30 11:55 E 6 11.27 Overcast SCT019 OVC026 27.5 22 72% 30 75.69 0.0
30 11:35 E 7 11.27 Overcast SCT017 OVC026 27.5 22.2 73% 30 75.69 0.0
30 11:15 E 11 11.27 Overcast BKN017 BKN023 OVC028 27.5 22.2 73% 30 75.69 0.0
30 10:55 E 9 11.27 Overcast BKN017 OVC028 27.1 22.2 75% 29 75.69 0.0
30 10:35 E 11 11.27 Overcast BKN015 OVC026 26.6 22.2 77% 29 75.72 0.0
30 10:15 E 9 11.27 Overcast BKN015 OVC023 26.2 22.1 78% 28 75.72 0.0
30 09:55 E 9 8.05 Overcast with Haze BKN015 OVC025 26 22.1 79% 28 75.72 0.0
30 09:35 E 11 11.27 Overcast SCT013 BKN020 OVC027 26.1 22.1 79% 28 75.72 0.0
30 09:15 E 9 11.27 Overcast SCT018 OVC027 25.8 22.1 80% 27 75.72 0.0
30 08:55 E 9 11.27 Overcast SCT018 OVC027 25.5 22 81% 27 75.74 0.0
30 08:15 E 9 11.27 Overcast OVC012 25.2 22 83% 26 75.72 0.0
30 07:55 NE 7 11.27 Overcast OVC012 25 22 83% 26 75.72 0.0
30 07:35 NE 6 11.27 Overcast OVC012 24.8 22 84% 25 75.69 0.0
30 07:15 E 6 11.27 Overcast BKN014 OVC021 24.7 21.9 84% 25 75.67 0.0
30 06:55 E 6 11.27 Overcast OVC019 24.6 21.7 27 24.4 84% 25 75.64 0.0
30 06:35 Calm 11.27 Overcast OVC019 24.6 21.7 84% 25 75.62 0.0
30 06:15 E 7 11.27 Overcast OVC019 24.7 21.7 83% 25 75.62 0.0
30 05:55 E 9 11.27 Overcast OVC019 24.7 21.7 83% 25 75.59 0.0
30 05:35 E 13 11.27 Overcast OVC017 24.7 21.7 83% 25 75.59 0.0
30 05:15 E 13 16.09 Overcast OVC013 25 21.8 82% 26 75.62 0.0
30 04:55 E 11 11.27 Overcast OVC011 24.8 21.8 83% 25 75.64 0.0
30 04:35 E 7 11.27 Overcast OVC011 24.7 22 85% 25 75.62 0.0
30 04:15 E 11 11.27 Overcast OVC011 24.6 22 86% 25 75.62 0.0
30 03:55 E 13 16.09 Mostly Cloudy BKN011 24.5 21.9 86% 25 75.62 0.0
30 03:35 E 13 16.09 Fair CLR 24.5 21.5 83% 25 75.62 0.0
30 03:15 E 13 16.09 Fair CLR 24.8 21.3 81% 26 75.59 0.0
30 02:55 E 9 16.09 Fair CLR 25 20.8 78% 26 75.59 0.0
30 02:35 E 9 16.09 Fair CLR 25.4 20.8 76% 27 75.62 0.0
30 02:15 E 9 16.09 Fair CLR 25.5 20.6 74% 27 75.62 0.0
30 01:55 E 7 16.09 Fair CLR 26 20.4 71% 27 75.62 0.0
30 01:35 E 7 16.09 Fair CLR 26.4 20 68% 28 75.64 0.0
30 01:15 E 13 16.09 Fair CLR 26.7 19.7 66% 28 75.64 0.0
30 00:55 E 9 16.09 Fair CLR 27.1 19.4 35.3 27.1 63% 28 75.69 0.0
30 00:15 SE 9 16.09 Fair CLR 28 18.7 57% 29 75.69 0.0
29 23:55 E 15 16.09 Fair CLR 28.4 18.6 55% 29 75.69 0.0
29 23:35 E 13 16.09 Fair CLR 28.9 18.7 54% 30 75.69 0.0
29 23:15 SE 19 16.09 Fair CLR 29.1 19.5 56% 31 75.69 0.0
29 22:55 SE 20 G 31 16.09 Fair CLR 29.6 20 56% 31 75.67 0.0
29 22:15 SE 15 G 28 16.09 Fair CLR 30.5 19.8 53% 32 75.64 0.0
29 21:55 SE 17 G 30 16.09 Fair CLR 31 20.3 53% 33 75.62 0.0
29 21:35 SE 11 16.09 Fair CLR 31.5 21.2 54% 34 75.59 0.0
29 21:15 SE 15 16.09 Fair CLR 32.1 21.1 52% 35 75.57 0.0
29 20:55 Calm 16.09 Fair CLR 32.6 20.5 49% 35 75.54 0.0
29 20:35 E 9 16.09 Fair CLR 33 20.2 47% 35 75.51 0.0
29 20:15 E 13 16.09 Fair CLR 33.6 20 45% 36 75.46 0.0
29 19:55 SE 9 16.09 Fair CLR 34.2 19.7 42% 36 75.44 0.0
29 19:35 SE 7 16.09 Fair CLR 34.6 19.5 41% 37 75.44 0.0
29 19:15 SE 9 16.09 Fair CLR 35 19.5 40% 37 75.44 0.0
29 18:55 SE 11 16.09 Fair CLR 35.5 19 37 32.8 38% 37 75.44 0.0
29 18:35 SE 11 16.09 Fair CLR 36 18.6 36% 38 75.44 0.0
29 18:15 SE 7 16.09 Fair CLR 36.1 18.2 35% 38 75.44 0.0
29 17:55 SE 15 16.09 Fair CLR 36.6 18.6 35% 38 75.41 0.0
29 17:35 SE 13 16.09 Fair CLR 36.2 18.8 36% 38 75.41 0.0
29 16:55 SE 13 16.09 Fair CLR 36.6 19.5 37% 39 75.44 0.0
29 16:35 SE 11 16.09 Fair CLR 36.7 19.6 37% 39 75.46 0.0
29 16:15 S 7 16.09 Fair CLR 36.6 20.1 38% 40 75.49 0.0
29 15:55 Calm 16.09 Fair CLR 36.4 20.1 38% 39 75.54 0.0
29 15:35 SE 7 16.09 Fair CLR 35.7 20.2 40% 39 75.59 0.0
29 15:15 S 11 16.09 Fair CLR 35.6 20.4 41% 39 75.59 0.0
29 14:55 S 11 16.09 Fair CLR 35.5 20.5 41% 39 75.62 0.0
29 14:35 S 20 G 28 16.09 Fair CLR 35.6 20.5 41% 39 75.64 0.0
29 14:15 SE 7 16.09 Fair CLR 35 21.2 45% 39 75.67 0.0
29 13:55 S 13 16.09 Fair CLR 34.8 21.4 46% 39 75.69 0.0
29 13:35 SE 7 16.09 Fair CLR 33.4 21.7 50% 37 75.72 0.0
29 13:15 SE 15 11.27 Fair CLR 33.5 22.1 51% 38 75.72 0.0
29 12:55 S 7 11.27 Fair CLR 32.1 22 32.1 23.6 55% 36 75.74 0.0
29 12:35 SE 11 11.27 Fair CLR 31.7 22 56% 35 75.77 0.0
29 12:15 SE 11 11.27 Fair CLR 31.5 22.2 58% 35 75.79 0.0
Date Time (cdt) Wind (kph) Vis. (km) Weather Sky Cond. Air Dwpt Max. Min. Relative Humidity Wind Chill (°C) Heat Index (°C) altimeter (cm) sea level (mb) 1 hr 3 hr 6 hr
6 hour
Temperature (ºC) Pressure Precipitation (cm)